createdAt,value
2019-03-22T00:00:28.034Z,63.10
2019-03-22T00:02:58.980Z,63.13
2019-03-22T00:05:29.508Z,60.17
2019-03-22T00:07:59.716Z,65.73
2019-03-22T00:10:29.884Z,64.43
2019-03-22T00:13:00.197Z,60.33
2019-03-22T00:15:30.477Z,50.67
2019-03-22T00:18:00.659Z,54.80
2019-03-22T00:20:30.874Z,57.70
2019-03-22T00:23:01.083Z,54.07
2019-03-22T00:25:31.263Z,61.00
2019-03-22T00:28:01.464Z,54.93
2019-03-22T00:30:31.727Z,53.97
2019-03-22T00:33:02.018Z,73.20
2019-03-22T00:35:32.196Z,68.23
2019-03-22T00:38:02.417Z,55.27
2019-03-22T00:40:32.586Z,62.80
2019-03-22T00:43:02.791Z,53.77
2019-03-22T00:45:32.974Z,51.07
2019-03-22T00:48:03.248Z,56.30
2019-03-22T00:50:33.520Z,59.80
2019-03-22T00:53:03.738Z,61.67
2019-03-22T00:55:33.936Z,93.47
2019-03-22T00:58:04.113Z,53.93
2019-03-22T01:00:34.383Z,57.63
2019-03-22T01:03:05.783Z,66.33
2019-03-22T01:05:36.006Z,69.70
2019-03-22T01:08:06.228Z,83.17
2019-03-22T01:10:36.419Z,71.97
2019-03-22T01:13:06.602Z,69.80
2019-03-22T01:15:36.860Z,68.70
2019-03-22T01:18:07.049Z,77.93
2019-03-22T01:20:37.268Z,93.57
2019-03-22T01:23:07.512Z,84.70
2019-03-22T01:25:37.760Z,186.50
2019-03-22T01:28:08.059Z,80.40
2019-03-22T01:30:38.470Z,77.23
2019-03-22T01:33:09.628Z,122.10
2019-03-22T01:35:39.865Z,66.70
2019-03-22T01:38:10.321Z,123.33
2019-03-22T01:40:40.595Z,63.37
2019-03-22T01:43:10.783Z,74.32
2019-03-22T01:45:41.067Z,56.83
2019-03-22T01:48:11.251Z,63.80
2019-03-22T01:50:41.456Z,63.13
2019-03-22T01:53:11.715Z,61.23
2019-03-22T01:55:42.945Z,50.73
2019-03-22T01:58:13.140Z,64.32
2019-03-22T02:00:43.328Z,64.47
2019-03-22T02:03:13.578Z,74.37
2019-03-22T02:05:43.863Z,60.13
2019-03-22T02:08:14.056Z,48.90
2019-03-22T02:10:44.256Z,67.33
2019-03-22T02:13:14.439Z,50.43
2019-03-22T02:15:44.623Z,56.73
2019-03-22T02:18:14.821Z,43.65
2019-03-22T02:20:45.043Z,76.53
2019-03-22T02:23:15.231Z,73.65
2019-03-22T02:25:45.401Z,55.97
2019-03-22T02:28:15.655Z,70.67
2019-03-22T02:30:45.840Z,38.13
2019-03-22T02:33:16.055Z,53.50
2019-03-22T02:35:46.337Z,40.90
2019-03-22T02:38:17.549Z,51.43
2019-03-22T02:40:47.748Z,59.87
2019-03-22T02:43:18.035Z,48.80
2019-03-22T02:45:48.253Z,44.77
2019-03-22T02:48:18.464Z,35.77
2019-03-22T02:50:48.648Z,39.10
2019-03-22T02:53:18.908Z,47.87
2019-03-22T02:55:49.438Z,37.47
2019-03-22T02:58:21.263Z,66.50
2019-03-22T03:00:51.576Z,45.40
2019-03-22T03:03:21.969Z,39.40
2019-03-22T03:05:52.156Z,35.37
2019-03-22T03:08:22.348Z,41.30
2019-03-22T03:10:52.523Z,54.33
2019-03-22T03:13:23.675Z,39.53
2019-03-22T03:15:54.054Z,41.93
2019-03-22T03:18:24.268Z,33.77
2019-03-22T03:20:54.443Z,41.13
2019-03-22T03:23:24.754Z,56.73
2019-03-22T03:25:55.069Z,38.07
2019-03-22T03:28:36.096Z,43.67
2019-03-22T03:30:57.253Z,41.67
2019-03-22T03:33:27.696Z,45.43
2019-03-22T03:35:57.891Z,41.13
2019-03-22T03:38:28.173Z,41.80
2019-03-22T03:40:58.528Z,36.73
2019-03-22T03:43:28.833Z,43.30
2019-03-22T03:45:59.106Z,57.40
2019-03-22T03:48:29.385Z,52.37
2019-03-22T03:50:59.639Z,44.60
2019-03-22T03:53:29.920Z,50.10
2019-03-22T03:56:00.211Z,35.00
2019-03-22T03:58:30.451Z,51.00
2019-03-22T04:01:00.642Z,34.47
2019-03-22T04:03:30.954Z,39.80
2019-03-22T04:06:01.212Z,33.57
2019-03-22T04:08:31.454Z,34.37
2019-03-22T04:11:01.651Z,34.83
2019-03-22T04:13:31.901Z,37.20
2019-03-22T04:16:03.134Z,32.03
2019-03-22T04:18:33.366Z,34.87
2019-03-22T04:21:03.625Z,26.50
2019-03-22T04:23:34.854Z,27.10
2019-03-22T04:26:06.265Z,64.33
2019-03-22T04:28:36.506Z,35.03
2019-03-22T04:31:06.740Z,28.07
2019-03-22T04:33:36.980Z,28.67
2019-03-22T04:36:07.255Z,24.40
2019-03-22T04:38:37.547Z,30.83
2019-03-22T04:41:07.951Z,34.27
2019-03-22T04:43:38.293Z,32.20
2019-03-22T04:46:10.425Z,22.03
2019-03-22T04:48:41.070Z,25.67
2019-03-22T04:51:11.727Z,25.00
2019-03-22T04:53:52.155Z,19.87
2019-03-22T04:56:23.619Z,23.17
2019-03-22T04:58:55.361Z,23.20
2019-03-22T05:01:27.359Z,24.63
2019-03-22T05:03:59.231Z,19.87
2019-03-22T05:06:30.875Z,23.30
2019-03-22T05:09:01.728Z,25.37
2019-03-22T05:11:32.576Z,22.97
2019-03-22T05:14:04.080Z,22.70
2019-03-22T05:16:37.431Z,25.80
2019-03-22T05:19:10.176Z,42.07
2019-03-22T05:21:41.134Z,28.60
2019-03-22T05:24:12.907Z,29.30
2019-03-22T05:26:44.015Z,18.63
2019-03-22T05:29:14.656Z,21.50
2019-03-22T05:32:13.580Z,110.67
2019-03-22T05:34:43.884Z,60.90
2019-03-22T05:37:14.266Z,32.77
2019-03-22T05:39:44.824Z,43.73
2019-03-22T05:42:15.195Z,13.27
2019-03-22T05:44:45.423Z,19.60
2019-03-22T05:47:15.647Z,54.70
2019-03-22T05:49:45.871Z,30.57
2019-03-22T05:52:16.122Z,25.50
2019-03-22T05:54:46.294Z,27.03
2019-03-22T05:57:16.597Z,23.53
2019-03-22T05:59:46.847Z,23.87
2019-03-22T06:02:17.170Z,23.02
2019-03-22T06:04:47.499Z,22.83
2019-03-22T06:07:17.743Z,25.50
2019-03-22T06:09:50.096Z,22.80
2019-03-22T06:12:20.282Z,22.40
2019-03-22T06:14:50.452Z,25.53
2019-03-22T06:17:20.705Z,18.23
2019-03-22T06:19:51.037Z,13.90
2019-03-22T06:22:21.428Z,14.47
2019-03-22T06:24:51.638Z,23.33
2019-03-22T06:27:21.820Z,23.57
2019-03-22T06:29:54.374Z,18.77
2019-03-22T06:32:25.054Z,23.57
2019-03-22T06:34:55.300Z,25.10
2019-03-22T06:37:25.540Z,34.30
2019-03-22T06:39:55.809Z,28.60
2019-03-22T06:42:26.158Z,18.83
2019-03-22T06:44:56.363Z,25.37
2019-03-22T06:47:26.692Z,18.17
2019-03-22T06:49:56.910Z,21.00
2019-03-22T06:52:28.192Z,15.90
2019-03-22T06:54:58.397Z,15.13
2019-03-22T06:57:28.674Z,14.50
2019-03-22T07:00:06.432Z,16.07
2019-03-22T07:02:31.103Z,15.40
2019-03-22T07:05:01.335Z,17.63
2019-03-22T07:07:31.595Z,19.07
2019-03-22T07:10:01.871Z,22.37
2019-03-22T07:12:32.136Z,23.00
2019-03-22T07:15:03.678Z,22.83
2019-03-22T07:17:33.899Z,22.03
2019-03-22T07:20:04.544Z,18.13
2019-03-22T07:22:34.768Z,20.90
2019-03-22T07:25:06.069Z,22.53
2019-03-22T07:27:36.290Z,21.03
2019-03-22T07:30:18.153Z,30.33
2019-03-22T07:32:40.261Z,24.43
2019-03-22T07:35:10.532Z,25.70
2019-03-22T07:37:40.768Z,27.57
2019-03-22T07:40:11.877Z,28.77
2019-03-22T07:42:42.527Z,29.70
2019-03-22T07:45:13.313Z,20.07
2019-03-22T07:47:43.556Z,35.27
2019-03-22T07:50:14.090Z,33.00
2019-03-22T07:52:44.371Z,31.60
2019-03-22T07:55:14.667Z,34.17
2019-03-22T07:57:44.864Z,32.50
2019-03-22T08:00:15.151Z,36.03
2019-03-22T08:02:46.363Z,20.93
2019-03-22T08:05:16.588Z,33.10
2019-03-22T08:07:46.754Z,43.90
2019-03-22T08:10:17.323Z,37.23
2019-03-22T08:12:47.594Z,40.80
2019-03-22T08:15:32.778Z,30.67
2019-03-22T08:18:03.028Z,32.03
2019-03-22T08:20:34.304Z,31.83
2019-03-22T08:23:17.403Z,31.70
2019-03-22T08:25:47.664Z,31.10
2019-03-22T08:28:17.865Z,44.63
2019-03-22T08:30:48.051Z,37.10
2019-03-22T08:33:18.339Z,29.70
2019-03-22T08:35:48.550Z,41.63
2019-03-22T08:38:18.883Z,36.40
2019-03-22T08:40:49.201Z,39.87
2019-03-22T08:43:19.813Z,29.13
2019-03-22T08:45:50.081Z,26.20
2019-03-22T08:48:20.367Z,29.92
2019-03-22T08:50:50.624Z,29.97
2019-03-22T08:53:20.929Z,35.33
2019-03-22T08:55:51.165Z,34.77
2019-03-22T08:58:21.378Z,29.80
2019-03-22T09:00:57.396Z,30.43
2019-03-22T09:03:23.779Z,19.53
2019-03-22T09:05:54.037Z,18.80
2019-03-22T09:08:24.337Z,23.53
2019-03-22T09:10:54.695Z,18.17
2019-03-22T09:13:24.882Z,16.67
2019-03-22T09:15:55.184Z,18.77
2019-03-22T09:18:25.462Z,20.93
2019-03-22T09:20:55.731Z,19.87
2019-03-22T09:23:25.942Z,22.53
2019-03-22T09:25:56.224Z,19.07
2019-03-22T09:28:26.492Z,16.07
2019-03-22T09:31:09.411Z,20.20
2019-03-22T09:33:29.600Z,16.03
2019-03-22T09:35:59.822Z,18.87
2019-03-22T09:38:30.134Z,17.97
2019-03-22T09:41:00.402Z,16.57
2019-03-22T09:43:30.669Z,18.77
2019-03-22T09:46:01.270Z,17.30
2019-03-22T09:48:32.452Z,15.23
2019-03-22T09:51:02.664Z,15.27
2019-03-22T09:53:32.893Z,16.10
2019-03-22T09:56:03.316Z,14.30
2019-03-22T09:58:33.584Z,15.70
2019-03-22T10:01:04.024Z,16.87
2019-03-22T10:03:34.308Z,15.73
2019-03-22T10:06:05.648Z,14.87
2019-03-22T10:08:35.993Z,13.77
2019-03-22T10:11:06.352Z,17.73
2019-03-22T10:13:36.607Z,17.47
2019-03-22T10:16:06.864Z,17.37
2019-03-22T10:18:37.267Z,18.07
2019-03-22T10:21:07.475Z,18.80
2019-03-22T10:23:37.647Z,18.87
2019-03-22T10:26:07.920Z,14.53
2019-03-22T10:28:38.248Z,16.73
2019-03-22T10:31:08.557Z,16.80
2019-03-22T10:33:38.787Z,16.70
2019-03-22T10:36:09.158Z,18.17
2019-03-22T10:38:39.457Z,20.47
2019-03-22T10:41:09.722Z,18.73
2019-03-22T10:43:40.014Z,21.57
2019-03-22T10:46:10.327Z,21.47
2019-03-22T10:48:40.850Z,19.23
2019-03-22T10:51:12.170Z,23.37
2019-03-22T10:53:42.340Z,22.10
2019-03-22T10:56:12.582Z,25.57
2019-03-22T10:58:42.779Z,25.57
2019-03-22T11:01:13.027Z,22.20
2019-03-22T11:03:43.476Z,21.00
2019-03-22T11:06:13.871Z,24.73
2019-03-22T11:08:44.076Z,22.43
2019-03-22T11:11:15.248Z,24.57
2019-03-22T11:13:45.486Z,23.33
2019-03-22T11:16:15.750Z,21.87
2019-03-22T11:18:45.915Z,25.37
2019-03-22T11:21:16.100Z,23.47
2019-03-22T11:23:46.287Z,25.37
2019-03-22T11:26:16.512Z,20.20
2019-03-22T11:28:46.711Z,23.70
2019-03-22T11:31:17.013Z,25.00
2019-03-22T11:33:47.219Z,19.67
2019-03-22T11:36:17.488Z,23.17
2019-03-22T11:38:47.915Z,27.27
2019-03-22T11:41:18.399Z,28.53
2019-03-22T11:43:48.996Z,25.82
2019-03-22T11:46:19.258Z,25.23
2019-03-22T11:48:49.555Z,25.53
2019-03-22T11:51:19.752Z,23.03
2019-03-22T11:53:50.027Z,20.97
2019-03-22T11:56:20.250Z,22.17
2019-03-22T11:58:50.495Z,23.77
2019-03-22T12:01:22.604Z,27.63
2019-03-22T12:03:53.022Z,24.33
2019-03-22T12:06:23.199Z,25.27
2019-03-22T12:08:53.403Z,23.67
2019-03-22T12:11:23.601Z,23.03
2019-03-22T12:13:53.947Z,23.57
2019-03-22T12:16:24.150Z,27.77
2019-03-22T12:18:54.392Z,23.43
2019-03-22T12:21:24.619Z,24.70
2019-03-22T12:23:54.832Z,26.83
2019-03-22T12:26:25.059Z,23.67
2019-03-22T12:28:55.263Z,28.00
2019-03-22T12:31:25.458Z,33.50
2019-03-22T12:33:55.795Z,37.73
2019-03-22T12:36:26.064Z,41.83
2019-03-22T12:38:56.295Z,39.00
2019-03-22T12:41:26.578Z,40.50
2019-03-22T12:43:56.827Z,44.03
2019-03-22T12:46:27.574Z,39.93
2019-03-22T12:48:57.863Z,39.43
2019-03-22T12:51:28.075Z,49.53
2019-03-22T12:53:58.254Z,46.90
2019-03-22T12:56:28.471Z,54.50
2019-03-22T12:58:58.690Z,51.57
2019-03-22T13:01:28.930Z,55.43
2019-03-22T13:03:59.168Z,63.53
2019-03-22T13:06:29.451Z,61.93
2019-03-22T13:08:59.665Z,59.07
2019-03-22T13:11:29.937Z,65.37
2019-03-22T13:14:00.463Z,74.47
2019-03-22T13:16:30.762Z,71.23
2019-03-22T13:19:01.110Z,66.20
2019-03-22T13:21:31.394Z,67.47
2019-03-22T13:24:01.631Z,74.03
2019-03-22T13:26:31.915Z,86.13
2019-03-22T13:29:02.157Z,74.60
2019-03-22T13:31:32.341Z,74.53
2019-03-22T13:34:02.689Z,78.47
2019-03-22T13:36:32.889Z,74.85
2019-03-22T13:39:03.819Z,88.60
2019-03-22T13:41:34.155Z,89.97
2019-03-22T13:44:05.412Z,83.10
2019-03-22T13:46:40.167Z,75.17
2019-03-22T13:49:07.691Z,83.40
2019-03-22T13:51:37.940Z,82.10
2019-03-22T13:54:08.619Z,79.60
2019-03-22T13:56:38.844Z,91.33
2019-03-22T13:59:09.124Z,80.10
2019-03-22T14:01:39.331Z,76.17
2019-03-22T14:04:09.649Z,78.27
2019-03-22T14:06:40.029Z,79.23
2019-03-22T14:09:10.275Z,74.83
2019-03-22T14:11:40.685Z,80.23
2019-03-22T14:14:11.080Z,73.00
2019-03-22T14:16:41.280Z,78.30
2019-03-22T14:19:11.513Z,73.37
2019-03-22T14:21:41.885Z,68.07
2019-03-22T14:24:12.139Z,73.53
2019-03-22T14:26:42.387Z,69.80
2019-03-22T14:29:12.675Z,71.80
2019-03-22T14:31:43.001Z,73.07
2019-03-22T14:34:13.231Z,71.93
2019-03-22T14:36:43.455Z,67.00
2019-03-22T14:39:13.763Z,66.00
2019-03-22T14:41:44.028Z,63.40
2019-03-22T14:44:14.387Z,65.95
2019-03-22T14:46:44.648Z,66.53
2019-03-22T14:49:14.854Z,64.87
2019-03-22T14:51:45.375Z,58.83
2019-03-22T14:54:15.613Z,66.30
2019-03-22T14:56:45.921Z,57.33
2019-03-22T14:59:16.151Z,65.27
2019-03-22T15:01:46.583Z,68.00
2019-03-22T15:04:16.836Z,59.20
2019-03-22T15:06:47.067Z,55.33
2019-03-22T15:09:17.239Z,60.77
2019-03-22T15:11:47.518Z,63.92
2019-03-22T15:14:34.432Z,70.90
2019-03-22T15:17:39.711Z,62.00
2019-03-22T15:20:32.115Z,64.77
2019-03-22T15:23:33.520Z,62.93
2019-03-22T15:26:30.499Z,64.03
2019-03-22T15:29:12.706Z,61.40
2019-03-22T15:32:00.415Z,63.07
2019-03-22T15:34:48.382Z,61.87
2019-03-22T15:37:48.122Z,69.00
2019-03-22T15:40:18.287Z,64.37
2019-03-22T15:42:48.499Z,62.27
2019-03-22T15:45:18.739Z,60.07
2019-03-22T15:47:48.963Z,58.20
2019-03-22T15:50:19.497Z,58.83
2019-03-22T15:52:49.838Z,62.27
2019-03-22T15:55:20.015Z,57.27
2019-03-22T15:57:50.199Z,57.13
2019-03-22T16:00:20.475Z,54.42
2019-03-22T16:02:50.683Z,53.40
2019-03-22T16:05:21.031Z,51.75
2019-03-22T16:07:51.227Z,54.33
2019-03-22T16:10:21.399Z,49.13
2019-03-22T16:12:51.644Z,52.48
2019-03-22T16:15:22.820Z,53.25
2019-03-22T16:17:52.999Z,51.23
2019-03-22T16:20:23.168Z,55.37
2019-03-22T16:22:53.331Z,49.93
2019-03-22T16:25:23.499Z,46.17
2019-03-22T16:27:53.675Z,51.53
2019-03-22T16:30:23.854Z,53.10
2019-03-22T16:32:54.050Z,49.40
2019-03-22T16:35:24.213Z,53.85
2019-03-22T16:37:54.470Z,48.60
2019-03-22T16:40:24.726Z,58.37
2019-03-22T16:42:54.998Z,55.87
2019-03-22T16:45:39.306Z,54.63
2019-03-22T16:48:09.780Z,52.73
2019-03-22T16:50:40.204Z,55.00
2019-03-22T16:53:10.615Z,57.17
2019-03-22T16:55:41.448Z,57.03
2019-03-22T16:58:11.636Z,55.27
2019-03-22T17:00:41.884Z,55.33
2019-03-22T17:03:12.051Z,57.27
2019-03-22T17:05:42.579Z,55.73
2019-03-22T17:08:12.834Z,46.40
2019-03-22T17:10:43.072Z,57.53
2019-03-22T17:13:13.272Z,52.37
2019-03-22T17:15:43.479Z,49.73
2019-03-22T17:18:13.972Z,53.43
2019-03-22T17:20:44.245Z,46.03
2019-03-22T17:23:14.475Z,44.60
2019-03-22T17:25:44.848Z,42.10
2019-03-22T17:28:15.055Z,43.00
2019-03-22T17:30:45.267Z,40.60
2019-03-22T17:33:15.477Z,44.93
2019-03-22T17:35:45.796Z,41.03
2019-03-22T17:38:16.102Z,43.13
2019-03-22T17:40:46.308Z,45.20
2019-03-22T17:43:16.490Z,49.43
2019-03-22T17:45:46.702Z,42.83
2019-03-22T17:48:16.890Z,48.98
2019-03-22T17:50:47.103Z,40.27
2019-03-22T17:53:17.346Z,49.00
2019-03-22T17:55:47.603Z,46.97
2019-03-22T17:58:18.870Z,50.97
2019-03-22T18:00:49.242Z,47.00
2019-03-22T18:03:19.502Z,46.10
2019-03-22T18:05:49.687Z,49.33
2019-03-22T18:08:20.139Z,45.40
2019-03-22T18:10:50.418Z,51.23
2019-03-22T18:13:20.629Z,54.33
2019-03-22T18:15:50.829Z,55.00
2019-03-22T18:18:21.069Z,57.53
2019-03-22T18:20:51.434Z,59.07
2019-03-22T18:23:21.637Z,60.00
2019-03-22T18:25:51.883Z,53.77
2019-03-22T18:28:22.079Z,59.20
2019-03-22T18:30:53.415Z,62.00
2019-03-22T18:33:23.644Z,58.63
2019-03-22T18:35:53.873Z,60.77
2019-03-22T18:38:24.092Z,51.70
2019-03-22T18:40:54.340Z,52.20
2019-03-22T18:43:24.527Z,55.70
2019-03-22T18:45:54.747Z,52.00
2019-03-22T18:48:24.943Z,56.80
2019-03-22T18:50:57.001Z,52.60
2019-03-22T18:53:27.003Z,52.47
2019-03-22T18:55:57.170Z,51.13
2019-03-22T18:58:27.340Z,55.23
2019-03-22T19:00:57.502Z,48.30
2019-03-22T19:03:27.673Z,46.03
2019-03-22T19:05:57.886Z,51.87
2019-03-22T19:08:28.083Z,49.23
2019-03-22T19:10:58.284Z,55.53
2019-03-22T19:13:30.967Z,52.93
2019-03-22T19:16:01.294Z,49.63
2019-03-22T19:18:32.821Z,55.00
2019-03-22T19:21:03.164Z,55.70
2019-03-22T19:23:33.377Z,48.03
2019-03-22T19:26:03.556Z,55.33
2019-03-22T19:28:33.759Z,48.87
2019-03-22T19:31:03.943Z,51.77
2019-03-22T19:33:34.129Z,46.37
2019-03-22T19:36:05.339Z,50.93
2019-03-22T19:38:35.586Z,43.73
2019-03-22T19:41:05.851Z,44.27
2019-03-22T19:43:36.323Z,44.83
2019-03-22T19:46:06.555Z,44.23
2019-03-22T19:48:36.788Z,47.93
2019-03-22T19:51:06.955Z,41.57
2019-03-22T19:53:37.170Z,50.23
2019-03-22T19:56:07.356Z,45.53
2019-03-22T19:58:37.532Z,44.40
2019-03-22T20:01:07.811Z,45.50
2019-03-22T20:03:38.116Z,47.30
2019-03-22T20:06:08.316Z,49.77
2019-03-22T20:08:38.639Z,47.57
2019-03-22T20:11:08.927Z,46.63
2019-03-22T20:13:39.095Z,50.97
2019-03-22T20:16:09.316Z,55.00
2019-03-22T20:18:39.583Z,46.70
2019-03-22T20:21:09.789Z,51.63
2019-03-22T20:23:39.948Z,52.90
2019-03-22T20:26:11.104Z,50.53
2019-03-22T20:28:41.266Z,52.03
2019-03-22T20:31:11.490Z,56.97
2019-03-22T20:33:41.680Z,55.23
2019-03-22T20:36:11.880Z,51.03
2019-03-22T20:38:42.102Z,51.70
2019-03-22T20:41:12.302Z,54.93
2019-03-22T20:43:42.493Z,56.87
2019-03-22T20:46:12.680Z,52.97
2019-03-22T20:48:42.875Z,56.97
2019-03-22T20:51:13.120Z,64.07
2019-03-22T20:53:43.455Z,57.47
2019-03-22T20:56:14.602Z,60.40
2019-03-22T20:58:44.849Z,56.70
2019-03-22T21:01:15.007Z,60.57
2019-03-22T21:03:45.230Z,61.37
2019-03-22T21:06:15.427Z,64.60
2019-03-22T21:08:45.638Z,63.13
2019-03-22T21:11:15.883Z,60.67
2019-03-22T21:13:46.074Z,67.43
2019-03-22T21:16:16.284Z,67.53
2019-03-22T21:18:46.800Z,59.53
2019-03-22T21:21:17.092Z,68.13
2019-03-22T21:23:47.275Z,71.53
2019-03-22T21:26:17.483Z,70.37
2019-03-22T21:28:47.684Z,78.83
2019-03-22T21:31:17.878Z,76.90
2019-03-22T21:33:48.080Z,71.93
2019-03-22T21:36:18.421Z,66.50
2019-03-22T21:38:48.630Z,86.07
2019-03-22T21:41:18.820Z,81.90
2019-03-22T21:43:48.982Z,85.57
2019-03-22T21:46:19.259Z,77.47
2019-03-22T21:48:49.439Z,82.00
2019-03-22T21:51:19.622Z,83.80
2019-03-22T21:53:49.786Z,83.20
2019-03-22T21:56:19.979Z,79.80
2019-03-22T21:58:50.226Z,79.27
2019-03-22T22:01:20.399Z,81.60
2019-03-22T22:03:50.575Z,84.50
2019-03-22T22:06:20.755Z,96.10
2019-03-22T22:08:50.933Z,85.50
2019-03-22T22:11:21.127Z,87.80
2019-03-22T22:13:52.307Z,93.50
2019-03-22T22:16:22.498Z,84.70
2019-03-22T22:18:52.687Z,87.93
2019-03-22T22:21:22.872Z,88.63
2019-03-22T22:23:53.040Z,86.40
2019-03-22T22:26:23.233Z,84.90
2019-03-22T22:28:53.392Z,88.23
2019-03-22T22:31:23.612Z,85.07
2019-03-22T22:33:53.775Z,85.03
2019-03-22T22:36:24.043Z,91.10
2019-03-22T22:38:54.195Z,92.23
2019-03-22T22:41:24.464Z,88.83
2019-03-22T22:43:54.714Z,94.53
2019-03-22T22:46:24.958Z,94.23
2019-03-22T22:48:55.119Z,94.87
2019-03-22T22:51:25.341Z,95.43
2019-03-22T22:53:55.515Z,96.67
2019-03-22T22:56:25.695Z,102.37
2019-03-22T22:58:56.859Z,96.90
2019-03-22T23:01:27.099Z,100.40
2019-03-22T23:03:57.276Z,92.87
2019-03-22T23:06:27.446Z,103.80
2019-03-22T23:08:57.705Z,104.97
2019-03-22T23:11:27.902Z,95.93
2019-03-22T23:13:58.094Z,97.60
2019-03-22T23:16:28.349Z,93.73
2019-03-22T23:18:58.531Z,103.47
2019-03-22T23:21:28.807Z,97.40
2019-03-22T23:23:59.010Z,103.73
2019-03-22T23:26:29.216Z,110.00
2019-03-22T23:28:59.491Z,117.73
2019-03-22T23:31:29.668Z,108.03
2019-03-22T23:33:59.943Z,109.93
2019-03-22T23:36:30.143Z,113.90
2019-03-22T23:39:00.371Z,121.00
2019-03-22T23:41:30.577Z,110.23
2019-03-22T23:44:00.844Z,117.53
2019-03-22T23:46:31.302Z,113.27
2019-03-22T23:49:01.515Z,111.03
2019-03-22T23:51:31.837Z,123.17
2019-03-22T23:54:02.098Z,113.43
2019-03-22T23:56:32.270Z,109.70
2019-03-22T23:59:02.535Z,116.13
